Austin, TX (78725)

5:37 AM CDT on August 04, 2015 (GMT -0500)
Berdoll Farms | | Change Station
CLOSE
Current Station
Personal Weather Station
Location: Texas, TX
Elevation: 489 ft
Nearby Weather Stations

Elev 489 ft 30.17 °N, 97.61 °W | Updated 1 minute ago

Partly Cloudy
Partly Cloudy
76.5 °F
Feels Like 78 °F
N
2.2
Wind Variable Wind from West

Today
High -- | Low -- °F
--% Chance of Precip.
Yesterday
High -- | Low -- °F
Precip. -- in
6:50 AM 8:21 PM
Waning Gibbous, 79% visible
Pressure 29.90 in
Visibility 9.0 miles
Clouds Few 1500 ft
Heat Index 78 °F
Dew Point 70 °F
Humidity 82%
Rainfall 0.00 in
Snow Depth Not available.
UV 0 out of 12
Pollen 7.70 out of 12
Air Quality Not available.
Flu Activity Not available.
METAR KAUS 040953Z 00000KT 9SM FEW015 22/22 A2994 RMK AO2 SLP125 T02220217

More Conditions Fewer Conditions

Pressure 29.90 in
Visibility 9.0 miles
Clouds Few 1500 ft
Heat Index 78 °F
Dew Point 70 °F
Humidity 82%
Rainfall 0.00 in
Snow Depth Not available.
UV 0 out of 12
Pollen 7.70 out of 12
Air Quality Not available.
Flu Activity Not available.
METAR KAUS 040953Z 00000KT 9SM FEW015 22/22 A2994 RMK AO2 SLP125 T02220217

More Conditions Fewer Conditions

10-Day Weather Forecast

×

Almanac

Astronomy

Aug. 04, 2015 Rise Set
Actual Time
Civil Twilight
Nautical Twilight
Astronomical Twilight
Moon
Length of Visible Light
Length of Day
Tomorrow will be .
, % of the Moon is Illuminated

Today's Extremes

State Highs State Lows

Community

WunderPhotos

Upload Photos

1,843,883 photos uploaded!

WunderBlogs® & News

Nearby

Air Quality

  Air Quality AQ Index Pollutant
Not available.

Snow Depth

Station Depth Elevation

Earthquake Activity

City Distance Mag. Time & Date
Minimum magnitude displayed is 2.5.

Coastal Water Temperatures

Place Temperature

Stations

Nearby Weather Stations

Station Location Temp. Windchill Dew Point Humidity Wind Precip. Elev Updated Type